sensor_id;sensor_type;location;lat;lon;timestamp;P1;durP1;ratioP1;P2;durP2;ratioP2
25123;SDS011;13104;51.030;4.686;2023-05-07T00:00:46;10.77;;;7.43;;
25123;SDS011;13104;51.030;4.686;2023-05-07T00:03:13;13.93;;;7.32;;
25123;SDS011;13104;51.030;4.686;2023-05-07T00:05:39;11.13;;;7.38;;
25123;SDS011;13104;51.030;4.686;2023-05-07T00:08:06;16.45;;;7.75;;
25123;SDS011;13104;51.030;4.686;2023-05-07T00:10:32;11.88;;;7.35;;
25123;SDS011;13104;51.030;4.686;2023-05-07T00:12:58;10.02;;;7.05;;
25123;SDS011;13104;51.030;4.686;2023-05-07T00:15:25;12.00;;;7.35;;
25123;SDS011;13104;51.030;4.686;2023-05-07T00:17:51;19.10;;;7.78;;
25123;SDS011;13104;51.030;4.686;2023-05-07T00:20:17;9.40;;;6.75;;
25123;SDS011;13104;51.030;4.686;2023-05-07T00:22:43;10.45;;;6.57;;
25123;SDS011;13104;51.030;4.686;2023-05-07T00:25:10;14.02;;;7.20;;
25123;SDS011;13104;51.030;4.686;2023-05-07T00:27:36;13.05;;;5.90;;
25123;SDS011;13104;51.030;4.686;2023-05-07T00:30:02;15.10;;;6.53;;
25123;SDS011;13104;51.030;4.686;2023-05-07T00:32:28;10.52;;;6.53;;
25123;SDS011;13104;51.030;4.686;2023-05-07T00:34:54;13.65;;;7.10;;
25123;SDS011;13104;51.030;4.686;2023-05-07T00:37:20;14.43;;;8.18;;
25123;SDS011;13104;51.030;4.686;2023-05-07T00:39:46;13.73;;;8.27;;
25123;SDS011;13104;51.030;4.686;2023-05-07T00:42:12;10.68;;;7.50;;
25123;SDS011;13104;51.030;4.686;2023-05-07T00:44:40;12.93;;;7.57;;
25123;SDS011;13104;51.030;4.686;2023-05-07T00:47:06;14.65;;;8.23;;
25123;SDS011;13104;51.030;4.686;2023-05-07T00:49:39;10.90;;;7.07;;
25123;SDS011;13104;51.030;4.686;2023-05-07T00:52:07;13.15;;;7.47;;
25123;SDS011;13104;51.030;4.686;2023-05-07T00:54:34;9.93;;;6.78;;
25123;SDS011;13104;51.030;4.686;2023-05-07T00:57:01;10.15;;;6.97;;
25123;SDS011;13104;51.030;4.686;2023-05-07T00:59:28;11.95;;;7.72;;
25123;SDS011;13104;51.030;4.686;2023-05-07T01:01:54;15.40;;;8.20;;
25123;SDS011;13104;51.030;4.686;2023-05-07T01:04:20;11.63;;;7.95;;
25123;SDS011;13104;51.030;4.686;2023-05-07T01:06:47;13.93;;;8.45;;
25123;SDS011;13104;51.030;4.686;2023-05-07T01:09:13;12.95;;;8.50;;
25123;SDS011;13104;51.030;4.686;2023-05-07T01:11:39;12.60;;;8.13;;
25123;SDS011;13104;51.030;4.686;2023-05-07T01:14:06;13.23;;;8.27;;
25123;SDS011;13104;51.030;4.686;2023-05-07T01:16:32;14.35;;;8.75;;
25123;SDS011;13104;51.030;4.686;2023-05-07T01:18:58;11.90;;;9.65;;
25123;SDS011;13104;51.030;4.686;2023-05-07T01:21:25;11.57;;;8.85;;
25123;SDS011;13104;51.030;4.686;2023-05-07T01:23:52;13.57;;;9.35;;
25123;SDS011;13104;51.030;4.686;2023-05-07T01:26:18;13.95;;;8.60;;
25123;SDS011;13104;51.030;4.686;2023-05-07T01:28:45;14.07;;;9.57;;
25123;SDS011;13104;51.030;4.686;2023-05-07T01:31:11;17.00;;;9.18;;
25123;SDS011;13104;51.030;4.686;2023-05-07T01:33:38;13.18;;;8.70;;
25123;SDS011;13104;51.030;4.686;2023-05-07T01:36:06;16.33;;;9.77;;
25123;SDS011;13104;51.030;4.686;2023-05-07T01:38:33;14.00;;;9.77;;
25123;SDS011;13104;51.030;4.686;2023-05-07T01:41:00;17.70;;;10.35;;
25123;SDS011;13104;51.030;4.686;2023-05-07T01:43:27;14.85;;;9.73;;
25123;SDS011;13104;51.030;4.686;2023-05-07T01:45:54;13.55;;;9.38;;
25123;SDS011;13104;51.030;4.686;2023-05-07T01:48:20;10.93;;;9.32;;
25123;SDS011;13104;51.030;4.686;2023-05-07T01:50:46;18.58;;;9.75;;
25123;SDS011;13104;51.030;4.686;2023-05-07T01:53:13;15.82;;;9.50;;
25123;SDS011;13104;51.030;4.686;2023-05-07T01:55:39;17.48;;;9.38;;
25123;SDS011;13104;51.030;4.686;2023-05-07T01:58:05;13.35;;;9.52;;
25123;SDS011;13104;51.030;4.686;2023-05-07T02:00:31;15.10;;;10.07;;
25123;SDS011;13104;51.030;4.686;2023-05-07T02:02:57;12.43;;;9.55;;
25123;SDS011;13104;51.030;4.686;2023-05-07T02:05:24;14.20;;;10.30;;
25123;SDS011;13104;51.030;4.686;2023-05-07T02:07:50;17.20;;;10.27;;
25123;SDS011;13104;51.030;4.686;2023-05-07T02:10:16;17.17;;;9.68;;
25123;SDS011;13104;51.030;4.686;2023-05-07T02:12:42;18.05;;;9.82;;
25123;SDS011;13104;51.030;4.686;2023-05-07T02:15:09;15.63;;;10.27;;
25123;SDS011;13104;51.030;4.686;2023-05-07T02:17:38;14.88;;;10.35;;
25123;SDS011;13104;51.030;4.686;2023-05-07T02:20:05;19.83;;;11.57;;
25123;SDS011;13104;51.030;4.686;2023-05-07T02:22:32;15.88;;;10.82;;
25123;SDS011;13104;51.030;4.686;2023-05-07T02:24:58;13.65;;;10.80;;
25123;SDS011;13104;51.030;4.686;2023-05-07T02:27:24;15.68;;;11.00;;
25123;SDS011;13104;51.030;4.686;2023-05-07T02:29:50;13.18;;;10.00;;
25123;SDS011;13104;51.030;4.686;2023-05-07T02:32:16;18.48;;;11.77;;
25123;SDS011;13104;51.030;4.686;2023-05-07T02:34:42;15.85;;;11.13;;
25123;SDS011;13104;51.030;4.686;2023-05-07T02:37:09;17.10;;;11.52;;
25123;SDS011;13104;51.030;4.686;2023-05-07T02:39:35;15.23;;;11.70;;
25123;SDS011;13104;51.030;4.686;2023-05-07T02:42:02;17.58;;;11.32;;
25123;SDS011;13104;51.030;4.686;2023-05-07T02:44:28;15.68;;;11.65;;
25123;SDS011;13104;51.030;4.686;2023-05-07T02:46:56;14.13;;;11.30;;
25123;SDS011;13104;51.030;4.686;2023-05-07T02:49:22;16.20;;;10.95;;
25123;SDS011;13104;51.030;4.686;2023-05-07T02:51:48;14.10;;;11.07;;
25123;SDS011;13104;51.030;4.686;2023-05-07T02:54:14;17.58;;;11.98;;
25123;SDS011;13104;51.030;4.686;2023-05-07T02:56:41;15.05;;;11.07;;
25123;SDS011;13104;51.030;4.686;2023-05-07T02:59:07;16.60;;;11.73;;
25123;SDS011;13104;51.030;4.686;2023-05-07T03:01:33;17.52;;;11.10;;
25123;SDS011;13104;51.030;4.686;2023-05-07T03:03:59;16.83;;;11.68;;
25123;SDS011;13104;51.030;4.686;2023-05-07T03:06:25;14.90;;;10.82;;
25123;SDS011;13104;51.030;4.686;2023-05-07T03:08:52;16.75;;;11.90;;
25123;SDS011;13104;51.030;4.686;2023-05-07T03:11:18;18.45;;;11.32;;
25123;SDS011;13104;51.030;4.686;2023-05-07T03:13:44;15.30;;;11.43;;
25123;SDS011;13104;51.030;4.686;2023-05-07T03:16:10;16.75;;;10.77;;
25123;SDS011;13104;51.030;4.686;2023-05-07T03:18:36;12.27;;;10.32;;
25123;SDS011;13104;51.030;4.686;2023-05-07T03:21:03;12.70;;;10.85;;
25123;SDS011;13104;51.030;4.686;2023-05-07T03:23:29;14.35;;;11.05;;
25123;SDS011;13104;51.030;4.686;2023-05-07T03:25:55;15.15;;;10.70;;
25123;SDS011;13104;51.030;4.686;2023-05-07T03:28:22;14.70;;;11.40;;
25123;SDS011;13104;51.030;4.686;2023-05-07T03:30:48;13.00;;;10.77;;
25123;SDS011;13104;51.030;4.686;2023-05-07T03:33:14;14.75;;;11.65;;
25123;SDS011;13104;51.030;4.686;2023-05-07T03:35:40;12.88;;;11.07;;
25123;SDS011;13104;51.030;4.686;2023-05-07T03:38:06;15.27;;;11.45;;
25123;SDS011;13104;51.030;4.686;2023-05-07T03:40:33;15.02;;;11.23;;
25123;SDS011;13104;51.030;4.686;2023-05-07T03:42:59;15.00;;;11.10;;
25123;SDS011;13104;51.030;4.686;2023-05-07T03:45:25;17.00;;;12.10;;
25123;SDS011;13104;51.030;4.686;2023-05-07T03:47:52;15.73;;;12.13;;
25123;SDS011;13104;51.030;4.686;2023-05-07T03:50:19;16.17;;;11.63;;
25123;SDS011;13104;51.030;4.686;2023-05-07T03:52:45;15.38;;;11.63;;
25123;SDS011;13104;51.030;4.686;2023-05-07T03:55:11;15.18;;;11.27;;
25123;SDS011;13104;51.030;4.686;2023-05-07T03:57:37;14.15;;;12.02;;
25123;SDS011;13104;51.030;4.686;2023-05-07T04:00:04;13.68;;;11.63;;
25123;SDS011;13104;51.030;4.686;2023-05-07T04:02:31;14.07;;;11.55;;
25123;SDS011;13104;51.030;4.686;2023-05-07T04:04:58;15.32;;;11.90;;
25123;SDS011;13104;51.030;4.686;2023-05-07T04:07:24;14.95;;;11.60;;
25123;SDS011;13104;51.030;4.686;2023-05-07T04:09:50;17.42;;;11.85;;
25123;SDS011;13104;51.030;4.686;2023-05-07T04:12:16;13.68;;;10.55;;
25123;SDS011;13104;51.030;4.686;2023-05-07T04:14:43;15.73;;;10.85;;
25123;SDS011;13104;51.030;4.686;2023-05-07T04:17:10;14.73;;;11.90;;
25123;SDS011;13104;51.030;4.686;2023-05-07T04:19:36;16.17;;;11.77;;
25123;SDS011;13104;51.030;4.686;2023-05-07T04:22:02;17.95;;;11.98;;
25123;SDS011;13104;51.030;4.686;2023-05-07T04:24:31;17.30;;;12.32;;
25123;SDS011;13104;51.030;4.686;2023-05-07T04:26:58;17.02;;;12.02;;
25123;SDS011;13104;51.030;4.686;2023-05-07T04:29:24;13.77;;;12.18;;
25123;SDS011;13104;51.030;4.686;2023-05-07T04:31:50;15.52;;;11.43;;
25123;SDS011;13104;51.030;4.686;2023-05-07T04:34:16;14.45;;;11.23;;
25123;SDS011;13104;51.030;4.686;2023-05-07T04:36:42;14.45;;;11.73;;
25123;SDS011;13104;51.030;4.686;2023-05-07T04:39:09;13.98;;;11.70;;
25123;SDS011;13104;51.030;4.686;2023-05-07T04:41:36;19.27;;;13.23;;
25123;SDS011;13104;51.030;4.686;2023-05-07T04:44:02;12.93;;;10.48;;
25123;SDS011;13104;51.030;4.686;2023-05-07T04:46:29;17.38;;;11.23;;
25123;SDS011;13104;51.030;4.686;2023-05-07T04:48:55;15.82;;;11.20;;
25123;SDS011;13104;51.030;4.686;2023-05-07T04:51:21;14.48;;;11.55;;
25123;SDS011;13104;51.030;4.686;2023-05-07T04:53:48;14.27;;;10.75;;
25123;SDS011;13104;51.030;4.686;2023-05-07T04:56:15;16.45;;;11.90;;
25123;SDS011;13104;51.030;4.686;2023-05-07T04:58:41;13.73;;;11.23;;
25123;SDS011;13104;51.030;4.686;2023-05-07T05:01:07;17.45;;;11.32;;
25123;SDS011;13104;51.030;4.686;2023-05-07T05:03:33;15.65;;;11.32;;
25123;SDS011;13104;51.030;4.686;2023-05-07T05:05:59;15.73;;;10.63;;
25123;SDS011;13104;51.030;4.686;2023-05-07T05:08:25;15.07;;;10.93;;
25123;SDS011;13104;51.030;4.686;2023-05-07T05:10:52;15.73;;;10.95;;
25123;SDS011;13104;51.030;4.686;2023-05-07T05:13:18;15.52;;;11.02;;
25123;SDS011;13104;51.030;4.686;2023-05-07T05:15:44;13.43;;;11.13;;
25123;SDS011;13104;51.030;4.686;2023-05-07T05:18:10;14.55;;;11.43;;
25123;SDS011;13104;51.030;4.686;2023-05-07T05:20:36;15.30;;;11.38;;
25123;SDS011;13104;51.030;4.686;2023-05-07T05:23:02;16.83;;;11.63;;
25123;SDS011;13104;51.030;4.686;2023-05-07T05:25:29;16.45;;;11.90;;
25123;SDS011;13104;51.030;4.686;2023-05-07T05:27:55;15.60;;;11.60;;
25123;SDS011;13104;51.030;4.686;2023-05-07T05:30:21;15.32;;;11.25;;
25123;SDS011;13104;51.030;4.686;2023-05-07T05:32:47;17.95;;;11.88;;
25123;SDS011;13104;51.030;4.686;2023-05-07T05:35:13;16.50;;;11.57;;
25123;SDS011;13104;51.030;4.686;2023-05-07T05:37:40;14.38;;;11.18;;
25123;SDS011;13104;51.030;4.686;2023-05-07T05:40:06;14.43;;;11.07;;
25123;SDS011;13104;51.030;4.686;2023-05-07T05:42:32;14.70;;;11.68;;
25123;SDS011;13104;51.030;4.686;2023-05-07T05:44:58;16.55;;;11.35;;
25123;SDS011;13104;51.030;4.686;2023-05-07T05:47:24;13.48;;;11.13;;
25123;SDS011;13104;51.030;4.686;2023-05-07T05:49:50;16.02;;;10.93;;
25123;SDS011;13104;51.030;4.686;2023-05-07T05:52:17;17.30;;;11.00;;
25123;SDS011;13104;51.030;4.686;2023-05-07T05:54:43;16.55;;;10.77;;
25123;SDS011;13104;51.030;4.686;2023-05-07T05:57:10;14.80;;;11.15;;
25123;SDS011;13104;51.030;4.686;2023-05-07T05:59:37;17.83;;;11.07;;
25123;SDS011;13104;51.030;4.686;2023-05-07T06:02:03;13.50;;;10.35;;
25123;SDS011;13104;51.030;4.686;2023-05-07T06:04:29;15.02;;;10.55;;
25123;SDS011;13104;51.030;4.686;2023-05-07T06:06:55;16.42;;;11.27;;
25123;SDS011;13104;51.030;4.686;2023-05-07T06:09:21;19.25;;;11.70;;
25123;SDS011;13104;51.030;4.686;2023-05-07T06:11:47;13.93;;;11.02;;
25123;SDS011;13104;51.030;4.686;2023-05-07T06:14:14;14.98;;;11.38;;
25123;SDS011;13104;51.030;4.686;2023-05-07T06:16:40;14.77;;;11.75;;
25123;SDS011;13104;51.030;4.686;2023-05-07T06:19:06;16.38;;;11.65;;
25123;SDS011;13104;51.030;4.686;2023-05-07T06:21:33;15.18;;;11.48;;
25123;SDS011;13104;51.030;4.686;2023-05-07T06:23:59;14.35;;;10.95;;
25123;SDS011;13104;51.030;4.686;2023-05-07T06:26:25;13.93;;;11.82;;
25123;SDS011;13104;51.030;4.686;2023-05-07T06:28:51;15.00;;;11.50;;
25123;SDS011;13104;51.030;4.686;2023-05-07T06:31:18;15.48;;;11.57;;
25123;SDS011;13104;51.030;4.686;2023-05-07T06:33:48;14.00;;;11.00;;
25123;SDS011;13104;51.030;4.686;2023-05-07T06:36:14;15.20;;;11.50;;
25123;SDS011;13104;51.030;4.686;2023-05-07T06:38:41;15.30;;;11.38;;
25123;SDS011;13104;51.030;4.686;2023-05-07T06:41:07;17.25;;;11.65;;
25123;SDS011;13104;51.030;4.686;2023-05-07T06:43:33;15.68;;;11.15;;
25123;SDS011;13104;51.030;4.686;2023-05-07T06:45:59;14.25;;;11.10;;
25123;SDS011;13104;51.030;4.686;2023-05-07T06:48:26;15.43;;;11.50;;
25123;SDS011;13104;51.030;4.686;2023-05-07T06:50:52;14.55;;;11.95;;
25123;SDS011;13104;51.030;4.686;2023-05-07T06:53:20;16.98;;;11.50;;
25123;SDS011;13104;51.030;4.686;2023-05-07T06:55:46;20.48;;;12.10;;
25123;SDS011;13104;51.030;4.686;2023-05-07T06:58:12;18.48;;;12.20;;
25123;SDS011;13104;51.030;4.686;2023-05-07T07:00:38;14.85;;;12.15;;
25123;SDS011;13104;51.030;4.686;2023-05-07T07:03:05;16.05;;;12.07;;
25123;SDS011;13104;51.030;4.686;2023-05-07T07:05:31;15.35;;;11.45;;
25123;SDS011;13104;51.030;4.686;2023-05-07T07:07:57;16.17;;;12.43;;
25123;SDS011;13104;51.030;4.686;2023-05-07T07:10:24;16.80;;;12.35;;
25123;SDS011;13104;51.030;4.686;2023-05-07T07:12:50;17.73;;;13.45;;
25123;SDS011;13104;51.030;4.686;2023-05-07T07:15:17;16.67;;;13.52;;
25123;SDS011;13104;51.030;4.686;2023-05-07T07:17:45;19.60;;;13.45;;
25123;SDS011;13104;51.030;4.686;2023-05-07T07:20:11;16.67;;;12.00;;
25123;SDS011;13104;51.030;4.686;2023-05-07T07:22:37;15.82;;;11.90;;
25123;SDS011;13104;51.030;4.686;2023-05-07T07:25:04;20.75;;;12.65;;
25123;SDS011;13104;51.030;4.686;2023-05-07T07:27:30;15.90;;;12.82;;
25123;SDS011;13104;51.030;4.686;2023-05-07T07:29:56;17.58;;;12.30;;
25123;SDS011;13104;51.030;4.686;2023-05-07T07:32:22;20.42;;;13.30;;
25123;SDS011;13104;51.030;4.686;2023-05-07T07:34:48;17.83;;;13.40;;
25123;SDS011;13104;51.030;4.686;2023-05-07T07:37:14;19.65;;;14.25;;
25123;SDS011;13104;51.030;4.686;2023-05-07T07:39:40;18.17;;;13.05;;
25123;SDS011;13104;51.030;4.686;2023-05-07T07:42:06;24.45;;;14.38;;
25123;SDS011;13104;51.030;4.686;2023-05-07T07:44:33;22.20;;;13.93;;
25123;SDS011;13104;51.030;4.686;2023-05-07T07:46:59;24.40;;;14.20;;
25123;SDS011;13104;51.030;4.686;2023-05-07T07:49:25;21.83;;;14.60;;
25123;SDS011;13104;51.030;4.686;2023-05-07T07:51:51;23.02;;;14.38;;
25123;SDS011;13104;51.030;4.686;2023-05-07T07:54:17;18.15;;;13.10;;
25123;SDS011;13104;51.030;4.686;2023-05-07T07:56:44;23.60;;;12.55;;
25123;SDS011;13104;51.030;4.686;2023-05-07T07:59:10;16.10;;;10.95;;
25123;SDS011;13104;51.030;4.686;2023-05-07T08:01:36;17.48;;;10.75;;
25123;SDS011;13104;51.030;4.686;2023-05-07T08:04:02;17.42;;;10.70;;
25123;SDS011;13104;51.030;4.686;2023-05-07T08:06:30;20.00;;;9.80;;
25123;SDS011;13104;51.030;4.686;2023-05-07T08:08:57;16.77;;;9.95;;
25123;SDS011;13104;51.030;4.686;2023-05-07T08:11:23;19.48;;;9.27;;
25123;SDS011;13104;51.030;4.686;2023-05-07T08:13:49;25.63;;;8.80;;
25123;SDS011;13104;51.030;4.686;2023-05-07T08:16:15;14.48;;;8.00;;
25123;SDS011;13104;51.030;4.686;2023-05-07T08:18:42;19.33;;;8.82;;
25123;SDS011;13104;51.030;4.686;2023-05-07T08:21:08;15.68;;;7.95;;
25123;SDS011;13104;51.030;4.686;2023-05-07T08:23:34;13.48;;;7.90;;
25123;SDS011;13104;51.030;4.686;2023-05-07T08:26:01;12.05;;;8.18;;
25123;SDS011;13104;51.030;4.686;2023-05-07T08:28:27;15.82;;;8.88;;
25123;SDS011;13104;51.030;4.686;2023-05-07T08:30:53;17.20;;;8.27;;
25123;SDS011;13104;51.030;4.686;2023-05-07T08:33:21;15.45;;;8.27;;
25123;SDS011;13104;51.030;4.686;2023-05-07T08:35:47;14.02;;;8.45;;
25123;SDS011;13104;51.030;4.686;2023-05-07T08:38:13;14.07;;;8.68;;
25123;SDS011;13104;51.030;4.686;2023-05-07T08:40:39;15.60;;;8.32;;
25123;SDS011;13104;51.030;4.686;2023-05-07T08:43:06;17.55;;;8.80;;
25123;SDS011;13104;51.030;4.686;2023-05-07T08:45:33;14.82;;;8.90;;
25123;SDS011;13104;51.030;4.686;2023-05-07T08:48:05;13.27;;;8.40;;
25123;SDS011;13104;51.030;4.686;2023-05-07T08:50:35;14.30;;;8.52;;
25123;SDS011;13104;51.030;4.686;2023-05-07T08:53:02;17.38;;;8.68;;
25123;SDS011;13104;51.030;4.686;2023-05-07T08:55:29;15.20;;;8.02;;
25123;SDS011;13104;51.030;4.686;2023-05-07T08:57:55;19.75;;;8.80;;
25123;SDS011;13104;51.030;4.686;2023-05-07T09:00:21;15.65;;;8.55;;
25123;SDS011;13104;51.030;4.686;2023-05-07T09:02:47;15.55;;;8.90;;
25123;SDS011;13104;51.030;4.686;2023-05-07T09:05:13;15.88;;;8.02;;
25123;SDS011;13104;51.030;4.686;2023-05-07T09:07:40;14.52;;;7.70;;
25123;SDS011;13104;51.030;4.686;2023-05-07T09:10:06;15.68;;;7.90;;
25123;SDS011;13104;51.030;4.686;2023-05-07T09:12:32;15.35;;;8.15;;
25123;SDS011;13104;51.030;4.686;2023-05-07T09:15:00;17.75;;;8.68;;
25123;SDS011;13104;51.030;4.686;2023-05-07T09:17:27;15.20;;;8.80;;
25123;SDS011;13104;51.030;4.686;2023-05-07T09:19:54;14.55;;;9.20;;
25123;SDS011;13104;51.030;4.686;2023-05-07T09:22:20;14.90;;;8.77;;
25123;SDS011;13104;51.030;4.686;2023-05-07T09:24:49;15.45;;;8.00;;
25123;SDS011;13104;51.030;4.686;2023-05-07T09:27:17;12.20;;;8.00;;
25123;SDS011;13104;51.030;4.686;2023-05-07T09:29:43;15.65;;;8.43;;
25123;SDS011;13104;51.030;4.686;2023-05-07T09:32:10;14.82;;;7.57;;
25123;SDS011;13104;51.030;4.686;2023-05-07T09:34:37;16.67;;;7.97;;
25123;SDS011;13104;51.030;4.686;2023-05-07T09:37:03;14.07;;;7.75;;
25123;SDS011;13104;51.030;4.686;2023-05-07T09:39:46;13.60;;;7.40;;
25123;SDS011;13104;51.030;4.686;2023-05-07T09:42:12;10.02;;;6.60;;
25123;SDS011;13104;51.030;4.686;2023-05-07T09:44:45;10.82;;;6.15;;
25123;SDS011;13104;51.030;4.686;2023-05-07T09:47:11;15.93;;;6.47;;
25123;SDS011;13104;51.030;4.686;2023-05-07T09:49:39;14.00;;;6.78;;
25123;SDS011;13104;51.030;4.686;2023-05-07T09:52:07;10.20;;;5.60;;
25123;SDS011;13104;51.030;4.686;2023-05-07T09:54:36;14.88;;;6.35;;
25123;SDS011;13104;51.030;4.686;2023-05-07T09:57:05;11.63;;;5.88;;
25123;SDS011;13104;51.030;4.686;2023-05-07T09:59:32;10.27;;;6.03;;
25123;SDS011;13104;51.030;4.686;2023-05-07T10:01:59;16.48;;;7.10;;
25123;SDS011;13104;51.030;4.686;2023-05-07T10:04:26;11.98;;;6.80;;
25123;SDS011;13104;51.030;4.686;2023-05-07T10:06:52;18.10;;;7.38;;
25123;SDS011;13104;51.030;4.686;2023-05-07T10:09:20;14.77;;;7.97;;
25123;SDS011;13104;51.030;4.686;2023-05-07T10:11:48;15.68;;;7.80;;
25123;SDS011;13104;51.030;4.686;2023-05-07T10:14:15;16.98;;;7.43;;
25123;SDS011;13104;51.030;4.686;2023-05-07T10:16:41;12.18;;;6.90;;
25123;SDS011;13104;51.030;4.686;2023-05-07T10:19:08;13.45;;;7.05;;
25123;SDS011;13104;51.030;4.686;2023-05-07T10:21:37;13.07;;;7.60;;
25123;SDS011;13104;51.030;4.686;2023-05-07T10:24:05;14.90;;;7.72;;
25123;SDS011;13104;51.030;4.686;2023-05-07T10:26:33;11.77;;;7.28;;
25123;SDS011;13104;51.030;4.686;2023-05-07T10:29:05;12.25;;;7.63;;
25123;SDS011;13104;51.030;4.686;2023-05-07T10:31:40;20.00;;;7.63;;
25123;SDS011;13104;51.030;4.686;2023-05-07T10:34:09;11.40;;;6.57;;
25123;SDS011;13104;51.030;4.686;2023-05-07T10:36:36;13.75;;;6.88;;
25123;SDS011;13104;51.030;4.686;2023-05-07T10:39:04;11.85;;;6.30;;
25123;SDS011;13104;51.030;4.686;2023-05-07T10:41:30;12.10;;;6.43;;
25123;SDS011;13104;51.030;4.686;2023-05-07T10:43:57;10.63;;;6.22;;
25123;SDS011;13104;51.030;4.686;2023-05-07T10:46:26;12.35;;;5.85;;
25123;SDS011;13104;51.030;4.686;2023-05-07T10:51:29;9.15;;;4.78;;
25123;SDS011;13104;51.030;4.686;2023-05-07T10:56:41;11.50;;;5.57;;
25123;SDS011;13104;51.030;4.686;2023-05-07T11:02:01;12.68;;;5.75;;
25123;SDS011;13104;51.030;4.686;2023-05-07T11:04:28;14.38;;;5.43;;
25123;SDS011;13104;51.030;4.686;2023-05-07T11:12:17;9.68;;;4.55;;
25123;SDS011;13104;51.030;4.686;2023-05-07T11:14:44;10.30;;;4.57;;
25123;SDS011;13104;51.030;4.686;2023-05-07T11:17:10;11.98;;;4.50;;
25123;SDS011;13104;51.030;4.686;2023-05-07T11:19:49;13.30;;;5.10;;
25123;SDS011;13104;51.030;4.686;2023-05-07T11:25:05;11.93;;;5.00;;
25123;SDS011;13104;51.030;4.686;2023-05-07T11:27:32;8.00;;;3.90;;
25123;SDS011;13104;51.030;4.686;2023-05-07T11:29:58;9.38;;;3.80;;
25123;SDS011;13104;51.030;4.686;2023-05-07T11:32:29;8.70;;;3.90;;
25123;SDS011;13104;51.030;4.686;2023-05-07T11:34:56;8.77;;;3.63;;
25123;SDS011;13104;51.030;4.686;2023-05-07T11:37:23;10.60;;;3.65;;
25123;SDS011;13104;51.030;4.686;2023-05-07T11:39:50;10.05;;;3.60;;
25123;SDS011;13104;51.030;4.686;2023-05-07T11:42:30;8.32;;;3.22;;
25123;SDS011;13104;51.030;4.686;2023-05-07T11:44:57;7.90;;;3.40;;
25123;SDS011;13104;51.030;4.686;2023-05-07T11:47:23;6.53;;;3.25;;
25123;SDS011;13104;51.030;4.686;2023-05-07T11:49:54;7.97;;;3.42;;
25123;SDS011;13104;51.030;4.686;2023-05-07T11:52:21;7.88;;;3.10;;
25123;SDS011;13104;51.030;4.686;2023-05-07T11:54:55;9.02;;;3.47;;
25123;SDS011;13104;51.030;4.686;2023-05-07T11:57:22;5.00;;;2.47;;
25123;SDS011;13104;51.030;4.686;2023-05-07T11:59:49;9.70;;;3.58;;
25123;SDS011;13104;51.030;4.686;2023-05-07T12:02:19;8.40;;;3.38;;
25123;SDS011;13104;51.030;4.686;2023-05-07T12:04:45;9.50;;;3.47;;
25123;SDS011;13104;51.030;4.686;2023-05-07T12:07:11;7.80;;;3.58;;
25123;SDS011;13104;51.030;4.686;2023-05-07T12:09:38;8.52;;;3.50;;
25123;SDS011;13104;51.030;4.686;2023-05-07T12:12:05;8.98;;;3.75;;
25123;SDS011;13104;51.030;4.686;2023-05-07T12:14:32;9.23;;;3.58;;
25123;SDS011;13104;51.030;4.686;2023-05-07T12:17:01;9.90;;;3.40;;
25123;SDS011;13104;51.030;4.686;2023-05-07T12:19:28;6.97;;;3.08;;
25123;SDS011;13104;51.030;4.686;2023-05-07T12:21:55;9.57;;;3.55;;
25123;SDS011;13104;51.030;4.686;2023-05-07T12:24:21;8.75;;;3.50;;
25123;SDS011;13104;51.030;4.686;2023-05-07T12:26:47;10.60;;;3.65;;
25123;SDS011;13104;51.030;4.686;2023-05-07T12:29:14;5.95;;;2.85;;
25123;SDS011;13104;51.030;4.686;2023-05-07T12:31:43;8.07;;;2.95;;
25123;SDS011;13104;51.030;4.686;2023-05-07T12:34:12;9.27;;;2.65;;
25123;SDS011;13104;51.030;4.686;2023-05-07T12:36:39;6.35;;;2.95;;
25123;SDS011;13104;51.030;4.686;2023-05-07T12:39:06;5.63;;;3.22;;
25123;SDS011;13104;51.030;4.686;2023-05-07T12:44:21;12.73;;;4.22;;
25123;SDS011;13104;51.030;4.686;2023-05-07T12:46:47;12.93;;;4.28;;
25123;SDS011;13104;51.030;4.686;2023-05-07T12:49:14;7.85;;;3.83;;
25123;SDS011;13104;51.030;4.686;2023-05-07T12:51:40;9.35;;;3.88;;
25123;SDS011;13104;51.030;4.686;2023-05-07T12:54:06;8.85;;;3.88;;
25123;SDS011;13104;51.030;4.686;2023-05-07T12:56:35;9.85;;;4.00;;
25123;SDS011;13104;51.030;4.686;2023-05-07T12:59:02;6.63;;;4.03;;
25123;SDS011;13104;51.030;4.686;2023-05-07T13:01:29;8.32;;;3.03;;
25123;SDS011;13104;51.030;4.686;2023-05-07T13:04:03;7.82;;;3.40;;
25123;SDS011;13104;51.030;4.686;2023-05-07T13:06:30;8.25;;;3.65;;
25123;SDS011;13104;51.030;4.686;2023-05-07T13:08:56;8.38;;;3.72;;
25123;SDS011;13104;51.030;4.686;2023-05-07T13:11:23;6.72;;;3.28;;
25123;SDS011;13104;51.030;4.686;2023-05-07T13:13:49;10.35;;;3.80;;
25123;SDS011;13104;51.030;4.686;2023-05-07T13:16:15;7.03;;;3.70;;
25123;SDS011;13104;51.030;4.686;2023-05-07T13:18:41;8.95;;;4.10;;
25123;SDS011;13104;51.030;4.686;2023-05-07T13:21:08;6.45;;;3.35;;
25123;SDS011;13104;51.030;4.686;2023-05-07T13:23:35;8.38;;;3.33;;
25123;SDS011;13104;51.030;4.686;2023-05-07T13:26:03;9.93;;;2.92;;
25123;SDS011;13104;51.030;4.686;2023-05-07T13:28:29;5.15;;;2.75;;
25123;SDS011;13104;51.030;4.686;2023-05-07T13:30:55;7.97;;;2.70;;
25123;SDS011;13104;51.030;4.686;2023-05-07T13:33:22;8.77;;;2.85;;
25123;SDS011;13104;51.030;4.686;2023-05-07T13:35:49;6.40;;;2.83;;
25123;SDS011;13104;51.030;4.686;2023-05-07T13:38:15;9.20;;;2.63;;
25123;SDS011;13104;51.030;4.686;2023-05-07T13:40:41;8.50;;;2.78;;
25123;SDS011;13104;51.030;4.686;2023-05-07T13:43:07;7.93;;;3.13;;
25123;SDS011;13104;51.030;4.686;2023-05-07T13:45:33;9.43;;;2.72;;
25123;SDS011;13104;51.030;4.686;2023-05-07T13:47:59;8.80;;;2.47;;
25123;SDS011;13104;51.030;4.686;2023-05-07T13:50:26;6.65;;;2.50;;
25123;SDS011;13104;51.030;4.686;2023-05-07T13:52:52;7.57;;;2.90;;
25123;SDS011;13104;51.030;4.686;2023-05-07T13:55:18;7.80;;;2.67;;
25123;SDS011;13104;51.030;4.686;2023-05-07T13:57:44;7.53;;;3.13;;
25123;SDS011;13104;51.030;4.686;2023-05-07T14:00:11;6.75;;;2.63;;
25123;SDS011;13104;51.030;4.686;2023-05-07T14:02:37;6.40;;;2.47;;
25123;SDS011;13104;51.030;4.686;2023-05-07T14:05:04;6.97;;;2.67;;
25123;SDS011;13104;51.030;4.686;2023-05-07T14:07:30;6.60;;;2.65;;
25123;SDS011;13104;51.030;4.686;2023-05-07T14:09:56;5.82;;;2.97;;
25123;SDS011;13104;51.030;4.686;2023-05-07T14:12:22;10.88;;;2.75;;
25123;SDS011;13104;51.030;4.686;2023-05-07T14:14:49;4.65;;;2.13;;
25123;SDS011;13104;51.030;4.686;2023-05-07T14:17:18;6.38;;;3.00;;
25123;SDS011;13104;51.030;4.686;2023-05-07T14:19:45;5.78;;;2.53;;
25123;SDS011;13104;51.030;4.686;2023-05-07T14:22:12;7.30;;;2.90;;
25123;SDS011;13104;51.030;4.686;2023-05-07T14:24:39;9.50;;;2.90;;
25123;SDS011;13104;51.030;4.686;2023-05-07T14:27:06;5.32;;;2.83;;
25123;SDS011;13104;51.030;4.686;2023-05-07T14:29:32;7.00;;;2.63;;
25123;SDS011;13104;51.030;4.686;2023-05-07T14:32:00;7.68;;;2.70;;
25123;SDS011;13104;51.030;4.686;2023-05-07T14:34:26;7.32;;;3.20;;
25123;SDS011;13104;51.030;4.686;2023-05-07T14:36:53;7.78;;;2.78;;
25123;SDS011;13104;51.030;4.686;2023-05-07T14:39:19;8.77;;;2.65;;
25123;SDS011;13104;51.030;4.686;2023-05-07T14:41:45;7.30;;;2.88;;
25123;SDS011;13104;51.030;4.686;2023-05-07T14:44:11;7.60;;;2.67;;
25123;SDS011;13104;51.030;4.686;2023-05-07T14:46:37;6.45;;;2.67;;